Terminal Aerodrome Forecast
Issued by NWS Spokane, WA

Current Version | Previous Version | Text Only | Print | Product List | Glossary On
Versions: 1 2 3 4 5 6 7 8 9 10 11 12 13 14 15 16 17 18 19 20 21 22 23 24 25 26 27 28
000
FTUS46 KOTX 271139
TAFLWS
TAF
KLWS 271139Z 2712/2812 00000KT 6SM BR FEW090
     FM271400 18008KT 4SM BR VCSH SCT050 OVC070
     FM272000 17010KT P6SM SCT050 BKN080 OVC100=

USA.gov is the U.S. government's official web portal to all federal, state and local government web resources and services.